createdAt,value
2017-09-17T00:00:48.071Z,0
2017-09-17T00:03:30.463Z,0
2017-09-17T00:05:31.906Z,0
2017-09-17T00:07:33.352Z,0
2017-09-17T00:09:34.731Z,0
2017-09-17T00:11:36.157Z,0
2017-09-17T00:13:37.726Z,0
2017-09-17T00:15:39.161Z,0
2017-09-17T00:18:21.669Z,0
2017-09-17T00:20:23.080Z,0
2017-09-17T00:22:24.497Z,0
2017-09-17T00:24:25.914Z,0
2017-09-17T00:26:27.325Z,0
2017-09-17T00:28:28.747Z,0
2017-09-17T00:30:30.157Z,0
2017-09-17T00:32:31.567Z,0
2017-09-17T00:34:32.982Z,0
2017-09-17T00:36:34.389Z,0
2017-09-17T00:38:35.812Z,0
2017-09-17T00:40:37.227Z,0
2017-09-17T00:42:38.635Z,0
2017-09-17T00:44:40.959Z,0
2017-09-17T00:46:42.313Z,0
2017-09-17T00:48:43.835Z,0
2017-09-17T00:51:26.222Z,0
2017-09-17T00:53:27.634Z,0
2017-09-17T00:55:29.063Z,0
2017-09-17T00:57:30.463Z,0
2017-09-17T00:59:32.188Z,0
2017-09-17T01:01:33.608Z,0
2017-09-17T01:03:35.018Z,0
2017-09-17T01:06:17.416Z,0
2017-09-17T01:08:18.838Z,0
2017-09-17T01:10:20.244Z,0
2017-09-17T01:12:22.286Z,0
2017-09-17T01:14:23.697Z,0
2017-09-17T01:16:25.128Z,0
2017-09-17T01:18:26.536Z,0
2017-09-17T01:20:27.952Z,0
2017-09-17T01:22:29.410Z,0
2017-09-17T01:24:30.872Z,0
2017-09-17T01:26:32.309Z,0
2017-09-17T01:28:33.773Z,0
2017-09-17T01:30:35.244Z,0
2017-09-17T01:32:36.818Z,0
2017-09-17T01:34:38.358Z,0
2017-09-17T01:36:40.003Z,0
2017-09-17T01:38:41.531Z,0
2017-09-17T01:40:43.301Z,0
2017-09-17T01:42:44.798Z,0
2017-09-17T01:44:46.305Z,0
2017-09-17T01:46:47.838Z,0
2017-09-17T01:48:49.355Z,0
2017-09-17T01:50:50.830Z,0
2017-09-17T01:53:33.236Z,0
2017-09-17T01:55:34.649Z,0
2017-09-17T01:57:36.313Z,0
2017-09-17T01:59:37.874Z,0
2017-09-17T02:01:39.285Z,0
2017-09-17T02:03:40.700Z,0
2017-09-17T02:05:42.112Z,0
2017-09-17T02:07:43.552Z,0
2017-09-17T02:09:44.961Z,0
2017-09-17T02:11:46.507Z,0
2017-09-17T02:13:48.041Z,0
2017-09-17T02:15:49.527Z,0
2017-09-17T02:17:51.054Z,0
2017-09-17T02:19:52.540Z,0
2017-09-17T02:21:54.055Z,0
2017-09-17T02:23:55.567Z,0
2017-09-17T02:25:57.050Z,0
2017-09-17T02:27:58.551Z,0
2017-09-17T02:30:00.149Z,0
2017-09-17T02:32:02.039Z,0
2017-09-17T02:34:03.452Z,0
2017-09-17T02:36:04.896Z,0
2017-09-17T02:38:06.400Z,0
2017-09-17T02:40:49.473Z,0
2017-09-17T02:42:50.749Z,0
2017-09-17T02:44:52.698Z,0
2017-09-17T02:46:54.077Z,0
2017-09-17T02:48:55.642Z,0
2017-09-17T02:50:57.059Z,0
2017-09-17T02:52:58.496Z,0
2017-09-17T02:54:59.907Z,0
2017-09-17T02:57:01.318Z,0
2017-09-17T02:59:02.732Z,0
2017-09-17T03:01:04.149Z,0
2017-09-17T03:03:05.560Z,0
2017-09-17T03:05:07.057Z,0
2017-09-17T03:07:08.500Z,0
2017-09-17T03:09:10.062Z,0
2017-09-17T03:11:11.615Z,0
2017-09-17T03:13:13.075Z,0
2017-09-17T03:15:14.552Z,0
2017-09-17T03:17:16.157Z,0
2017-09-17T03:19:17.677Z,0
2017-09-17T03:21:19.199Z,0
2017-09-17T03:23:20.665Z,0
2017-09-17T03:25:22.171Z,0
2017-09-17T03:27:23.647Z,0
2017-09-17T03:30:06.624Z,0
2017-09-17T03:32:08.039Z,0
2017-09-17T03:34:09.463Z,0
2017-09-17T03:36:10.982Z,0
2017-09-17T03:38:12.481Z,0
2017-09-17T03:40:13.938Z,0
2017-09-17T03:42:15.401Z,0
2017-09-17T03:44:58.817Z,0
2017-09-17T03:47:00.221Z,0
2017-09-17T03:49:01.646Z,0
2017-09-17T03:51:03.057Z,0
2017-09-17T03:53:04.470Z,0
2017-09-17T03:55:05.883Z,0
2017-09-17T03:57:07.291Z,0
2017-09-17T03:59:08.704Z,0
2017-09-17T04:01:10.128Z,0
2017-09-17T04:03:11.540Z,0
2017-09-17T04:05:12.983Z,0
2017-09-17T04:07:14.389Z,0
2017-09-17T04:09:16.041Z,0
2017-09-17T04:11:17.458Z,0
2017-09-17T04:13:18.859Z,0
2017-09-17T04:15:20.398Z,0
2017-09-17T04:17:21.855Z,0
2017-09-17T04:19:23.384Z,0
2017-09-17T04:21:24.874Z,0
2017-09-17T04:23:26.405Z,0
2017-09-17T04:25:27.907Z,0
2017-09-17T04:27:29.417Z,0
2017-09-17T04:29:30.912Z,0
2017-09-17T04:31:32.453Z,0
2017-09-17T04:33:33.871Z,0
2017-09-17T04:35:35.331Z,0
2017-09-17T04:37:36.797Z,0
2017-09-17T04:39:38.362Z,0
2017-09-17T04:41:40.335Z,0
2017-09-17T04:43:42.319Z,0
2017-09-17T04:45:43.885Z,0
2017-09-17T04:47:45.430Z,0
2017-09-17T04:49:46.979Z,0
2017-09-17T04:51:48.486Z,0
2017-09-17T04:53:50.012Z,0
2017-09-17T04:55:51.515Z,0
2017-09-17T04:57:53.070Z,0
2017-09-17T04:59:54.600Z,0
2017-09-17T05:01:56.176Z,0
2017-09-17T05:04:38.575Z,0
2017-09-17T05:06:40.444Z,0
2017-09-17T05:08:41.846Z,0
2017-09-17T05:10:43.257Z,0
2017-09-17T05:12:44.682Z,0
2017-09-17T05:14:46.231Z,0
2017-09-17T05:16:47.753Z,0
2017-09-17T05:19:30.145Z,0
2017-09-17T05:21:31.562Z,0
2017-09-17T05:23:32.968Z,0
2017-09-17T05:25:34.382Z,0
2017-09-17T05:27:36.165Z,5
2017-09-17T05:29:37.534Z,5
2017-09-17T05:31:38.955Z,5
2017-09-17T05:33:40.386Z,5
2017-09-17T05:35:41.831Z,5
2017-09-17T05:37:43.309Z,10
2017-09-17T05:39:44.797Z,10
2017-09-17T05:41:46.391Z,10
2017-09-17T05:43:47.842Z,10
2017-09-17T05:45:49.333Z,10
2017-09-17T05:47:50.877Z,10
2017-09-17T05:50:34.024Z,10
2017-09-17T05:52:35.412Z,15
2017-09-17T05:54:36.856Z,15
2017-09-17T05:56:38.279Z,15
2017-09-17T05:58:39.691Z,15
2017-09-17T06:00:41.111Z,15
2017-09-17T06:02:42.813Z,20
2017-09-17T06:04:44.237Z,20
2017-09-17T06:06:45.714Z,20
2017-09-17T06:08:47.128Z,20
2017-09-17T06:10:48.566Z,15
2017-09-17T06:12:50.066Z,15
2017-09-17T06:14:51.583Z,15
2017-09-17T06:16:53.071Z,20
2017-09-17T06:18:54.617Z,20
2017-09-17T06:20:56.118Z,25
2017-09-17T06:22:57.705Z,25
2017-09-17T06:24:59.160Z,25
2017-09-17T06:27:00.679Z,30
2017-09-17T06:29:02.177Z,30
2017-09-17T06:31:03.691Z,30
2017-09-17T06:33:05.237Z,30
2017-09-17T06:35:06.774Z,35
2017-09-17T06:37:08.400Z,35
2017-09-17T06:39:09.898Z,35
2017-09-17T06:41:11.458Z,50
2017-09-17T06:43:12.980Z,240
2017-09-17T06:45:14.471Z,440
2017-09-17T06:47:15.957Z,385
2017-09-17T06:49:17.461Z,205
2017-09-17T06:51:18.993Z,140
2017-09-17T06:53:20.479Z,165
2017-09-17T06:55:22.016Z,125
2017-09-17T06:57:23.733Z,85
2017-09-17T06:59:25.600Z,95
2017-09-17T07:01:27.115Z,45
2017-09-17T07:03:28.556Z,50
2017-09-17T07:05:29.975Z,120
2017-09-17T07:07:31.389Z,95
2017-09-17T07:09:32.808Z,70
2017-09-17T07:11:34.240Z,115
2017-09-17T07:13:35.923Z,65
2017-09-17T07:15:37.362Z,70
2017-09-17T07:17:38.781Z,120
2017-09-17T07:19:40.201Z,110
2017-09-17T07:21:41.651Z,95
2017-09-17T07:23:43.058Z,45
2017-09-17T07:26:25.463Z,60
2017-09-17T07:28:26.887Z,145
2017-09-17T07:30:28.305Z,260
2017-09-17T07:32:30.325Z,135
2017-09-17T07:34:31.773Z,175
2017-09-17T07:36:33.290Z,690
2017-09-17T07:38:34.711Z,590
2017-09-17T07:40:36.148Z,710
2017-09-17T07:43:17.539Z,195
2017-09-17T07:45:18.965Z,235
2017-09-17T07:47:20.667Z,560
2017-09-17T07:49:22.102Z,665
2017-09-17T07:51:23.519Z,330
2017-09-17T07:53:24.950Z,250
2017-09-17T07:55:26.370Z,625
2017-09-17T07:57:27.792Z,780
2017-09-17T07:59:29.219Z,590
2017-09-17T08:01:30.641Z,125
2017-09-17T08:03:32.070Z,125
2017-09-17T08:05:33.484Z,125
2017-09-17T08:07:34.909Z,130
2017-09-17T08:09:36.331Z,125
2017-09-17T08:11:37.786Z,125
2017-09-17T08:13:39.258Z,130
2017-09-17T08:15:40.759Z,130
2017-09-17T08:17:42.338Z,130
2017-09-17T08:19:43.825Z,130
2017-09-17T08:21:45.359Z,130
2017-09-17T08:23:46.853Z,130
2017-09-17T08:25:48.302Z,130
2017-09-17T08:27:49.745Z,130
2017-09-17T08:30:32.157Z,130
2017-09-17T08:32:33.991Z,130
2017-09-17T08:34:35.411Z,125
2017-09-17T08:36:36.852Z,125
2017-09-17T08:38:38.271Z,120
2017-09-17T08:40:39.725Z,115
2017-09-17T08:42:41.117Z,115
2017-09-17T08:44:42.566Z,115
2017-09-17T08:46:44.018Z,110
2017-09-17T08:48:45.442Z,110
2017-09-17T08:50:46.908Z,110
2017-09-17T08:52:48.368Z,110
2017-09-17T08:54:49.929Z,95
2017-09-17T08:56:51.451Z,90
2017-09-17T08:58:52.902Z,90
2017-09-17T09:01:35.313Z,80
2017-09-17T09:03:36.946Z,80
2017-09-17T09:05:38.336Z,80
2017-09-17T09:07:39.758Z,85
2017-09-17T09:09:41.182Z,85
2017-09-17T09:11:42.603Z,80
2017-09-17T09:13:44.049Z,75
2017-09-17T09:15:45.480Z,60
2017-09-17T09:18:28.502Z,80
2017-09-17T09:20:29.877Z,80
2017-09-17T09:22:31.292Z,80
2017-09-17T09:24:32.714Z,80
2017-09-17T09:26:34.140Z,75
2017-09-17T09:28:35.573Z,70
2017-09-17T09:30:36.998Z,70
2017-09-17T09:32:38.420Z,70
2017-09-17T09:34:39.840Z,75
2017-09-17T09:36:41.289Z,75
2017-09-17T09:38:42.696Z,80
2017-09-17T09:40:44.122Z,80
2017-09-17T09:42:45.545Z,75
2017-09-17T09:44:46.971Z,50
2017-09-17T09:46:48.392Z,60
2017-09-17T09:49:30.802Z,95
2017-09-17T09:51:32.566Z,95
2017-09-17T09:53:34.132Z,100
2017-09-17T09:55:35.572Z,105
2017-09-17T09:57:37.002Z,115
2017-09-17T09:59:38.427Z,110
2017-09-17T10:01:39.854Z,115
2017-09-17T10:03:41.309Z,120
2017-09-17T10:05:42.738Z,120
2017-09-17T10:07:44.152Z,125
2017-09-17T10:09:45.590Z,115
2017-09-17T10:11:47.083Z,125
2017-09-17T10:13:48.507Z,130
2017-09-17T10:15:49.934Z,130
2017-09-17T10:17:51.393Z,125
2017-09-17T10:19:52.809Z,125
2017-09-17T10:21:54.227Z,125
2017-09-17T10:23:55.649Z,125
2017-09-17T10:25:57.108Z,130
2017-09-17T10:27:58.551Z,130
2017-09-17T10:29:59.973Z,130
2017-09-17T10:32:01.408Z,130
2017-09-17T10:34:02.882Z,140
2017-09-17T10:36:04.307Z,135
2017-09-17T10:38:05.742Z,135
2017-09-17T10:40:07.163Z,125
2017-09-17T10:42:08.591Z,135
2017-09-17T10:44:10.014Z,130
2017-09-17T10:46:11.448Z,135
2017-09-17T10:48:12.899Z,75
2017-09-17T10:50:14.360Z,140
2017-09-17T10:52:15.819Z,135
2017-09-17T10:54:17.296Z,140
2017-09-17T10:56:18.791Z,140
2017-09-17T10:58:20.264Z,145
2017-09-17T11:00:21.694Z,145
2017-09-17T11:02:23.132Z,145
2017-09-17T11:04:24.559Z,145
2017-09-17T11:06:26.008Z,135
2017-09-17T11:08:27.444Z,150
2017-09-17T11:10:28.863Z,140
2017-09-17T11:12:30.292Z,145
2017-09-17T11:14:31.724Z,145
2017-09-17T11:16:33.156Z,145
2017-09-17T11:18:34.588Z,150
2017-09-17T11:20:36.036Z,150
2017-09-17T11:22:37.532Z,145
2017-09-17T11:24:39.067Z,70
2017-09-17T11:26:40.522Z,70
2017-09-17T11:28:42.058Z,135
2017-09-17T11:30:43.530Z,150
2017-09-17T11:32:45.024Z,55
2017-09-17T11:34:46.512Z,150
2017-09-17T11:36:48.044Z,145
2017-09-17T11:38:49.508Z,150
2017-09-17T11:40:51.045Z,50
2017-09-17T11:42:52.524Z,45
2017-09-17T11:44:54.057Z,45
2017-09-17T11:46:55.571Z,130
2017-09-17T11:48:57.057Z,50
2017-09-17T11:50:58.525Z,50
2017-09-17T11:52:59.987Z,45
2017-09-17T11:55:01.510Z,55
2017-09-17T11:57:02.969Z,70
2017-09-17T11:59:04.490Z,45
2017-09-17T12:01:06.060Z,45
2017-09-17T12:03:07.885Z,45
2017-09-17T12:05:09.759Z,45
2017-09-17T12:07:11.274Z,45
2017-09-17T12:09:12.799Z,45
2017-09-17T12:11:14.288Z,40
2017-09-17T12:13:15.852Z,40
2017-09-17T12:15:17.402Z,35
2017-09-17T12:17:18.933Z,35
2017-09-17T12:19:20.438Z,35
2017-09-17T12:21:21.918Z,35
2017-09-17T12:23:23.372Z,40
2017-09-17T12:25:24.840Z,40
2017-09-17T12:28:07.319Z,50
2017-09-17T12:30:08.735Z,115
2017-09-17T12:32:10.160Z,40
2017-09-17T12:34:11.636Z,35
2017-09-17T12:36:13.061Z,35
2017-09-17T12:38:14.846Z,35
2017-09-17T12:40:16.321Z,30
2017-09-17T12:42:17.744Z,30
2017-09-17T12:44:19.362Z,25
2017-09-17T12:46:20.755Z,25
2017-09-17T12:48:22.240Z,25
2017-09-17T12:50:23.729Z,25
2017-09-17T12:52:25.159Z,25
2017-09-17T12:54:26.630Z,25
2017-09-17T12:56:28.203Z,30
2017-09-17T12:59:11.622Z,30
2017-09-17T13:01:13.042Z,25
2017-09-17T13:03:14.463Z,30
2017-09-17T13:05:15.966Z,30
2017-09-17T13:07:17.391Z,35
2017-09-17T13:09:18.814Z,55
2017-09-17T13:11:20.245Z,70
2017-09-17T13:13:21.700Z,75
2017-09-17T13:15:23.120Z,45
2017-09-17T13:17:24.544Z,45
2017-09-17T13:19:26.334Z,45
2017-09-17T13:21:27.745Z,95
2017-09-17T13:23:29.174Z,95
2017-09-17T13:25:30.598Z,95
2017-09-17T13:27:32.026Z,100
2017-09-17T13:29:33.453Z,100
2017-09-17T13:31:34.884Z,100
2017-09-17T13:33:36.317Z,100
2017-09-17T13:35:37.759Z,100
2017-09-17T13:37:39.227Z,100
2017-09-17T13:39:40.784Z,95
2017-09-17T13:41:42.302Z,95
2017-09-17T13:43:43.836Z,100
2017-09-17T13:45:45.384Z,100
2017-09-17T13:47:46.877Z,95
2017-09-17T13:49:48.450Z,95
2017-09-17T13:51:49.996Z,95
2017-09-17T13:53:51.455Z,95
2017-09-17T13:55:52.884Z,35
2017-09-17T13:57:54.331Z,30
2017-09-17T13:59:55.764Z,30
2017-09-17T14:02:38.215Z,30
2017-09-17T14:04:39.641Z,65
2017-09-17T14:06:41.070Z,85
2017-09-17T14:08:42.497Z,80
2017-09-17T14:10:43.920Z,80
2017-09-17T14:12:45.351Z,85
2017-09-17T14:14:46.784Z,35
2017-09-17T14:16:48.200Z,35
2017-09-17T14:18:49.625Z,35
2017-09-17T14:20:51.056Z,35
2017-09-17T14:22:52.481Z,35
2017-09-17T14:24:54.206Z,40
2017-09-17T14:26:55.688Z,35
2017-09-17T14:28:57.190Z,35
2017-09-17T14:30:58.610Z,35
2017-09-17T14:33:00.037Z,35
2017-09-17T14:35:01.459Z,35
2017-09-17T14:37:02.899Z,35
2017-09-17T14:39:04.328Z,35
2017-09-17T14:41:05.748Z,35
2017-09-17T14:43:07.190Z,35
2017-09-17T14:45:08.615Z,35
2017-09-17T14:47:10.039Z,35
2017-09-17T14:49:52.963Z,35
2017-09-17T14:51:54.345Z,35
2017-09-17T14:53:55.766Z,35
2017-09-17T14:55:57.475Z,30
2017-09-17T14:57:58.881Z,30
2017-09-17T15:00:00.373Z,30
2017-09-17T15:02:01.791Z,30
2017-09-17T15:04:03.216Z,30
2017-09-17T15:06:46.250Z,30
2017-09-17T15:08:47.674Z,30
2017-09-17T15:10:49.099Z,30
2017-09-17T15:12:50.521Z,30
2017-09-17T15:14:51.966Z,30
2017-09-17T15:16:53.367Z,30
2017-09-17T15:18:54.802Z,30
2017-09-17T15:20:56.219Z,30
2017-09-17T15:22:57.639Z,25
2017-09-17T15:24:59.086Z,25
2017-09-17T15:27:00.503Z,25
2017-09-17T15:29:01.928Z,25
2017-09-17T15:31:03.381Z,25
2017-09-17T15:33:04.812Z,25
2017-09-17T15:35:06.243Z,25
2017-09-17T15:37:48.659Z,25
2017-09-17T15:39:50.094Z,25
2017-09-17T15:41:51.518Z,25
2017-09-17T15:43:52.937Z,25
2017-09-17T15:45:54.371Z,25
2017-09-17T15:47:55.780Z,25
2017-09-17T15:49:57.740Z,20
2017-09-17T15:51:59.144Z,20
2017-09-17T15:54:00.571Z,20
2017-09-17T15:56:02.110Z,20
2017-09-17T15:58:03.539Z,20
2017-09-17T16:00:04.958Z,20
2017-09-17T16:02:06.390Z,20
2017-09-17T16:04:07.864Z,20
2017-09-17T16:06:09.338Z,20
2017-09-17T16:08:10.867Z,20
2017-09-17T16:10:12.359Z,20
2017-09-17T16:12:13.867Z,15
2017-09-17T16:14:15.505Z,15
2017-09-17T16:16:16.961Z,15
2017-09-17T16:18:18.437Z,15
2017-09-17T16:20:19.865Z,10
2017-09-17T16:22:21.284Z,10
2017-09-17T16:24:22.751Z,15
2017-09-17T16:26:24.189Z,15
2017-09-17T16:28:25.612Z,15
2017-09-17T16:30:27.050Z,10
2017-09-17T16:32:28.488Z,10
2017-09-17T16:34:29.917Z,10
2017-09-17T16:36:31.446Z,10
2017-09-17T16:38:32.915Z,10
2017-09-17T16:40:34.337Z,10
2017-09-17T16:42:35.870Z,10
2017-09-17T16:44:37.488Z,5
2017-09-17T16:46:39.103Z,5
2017-09-17T16:48:40.616Z,5
2017-09-17T16:50:42.136Z,5
2017-09-17T16:52:43.764Z,5
2017-09-17T16:54:45.188Z,5
2017-09-17T16:56:46.715Z,0
2017-09-17T16:58:48.154Z,0
2017-09-17T17:00:49.571Z,0
2017-09-17T17:02:51.048Z,0
2017-09-17T17:04:52.476Z,0
2017-09-17T17:06:54.106Z,0
2017-09-17T17:08:55.595Z,0
2017-09-17T17:10:57.047Z,0
2017-09-17T17:12:58.470Z,0
2017-09-17T17:15:00.145Z,0
2017-09-17T17:17:01.636Z,0
2017-09-17T17:19:03.130Z,0
2017-09-17T17:21:04.540Z,0
2017-09-17T17:23:05.993Z,0
2017-09-17T17:25:07.448Z,0
2017-09-17T17:27:09.024Z,0
2017-09-17T17:29:10.426Z,0
2017-09-17T17:31:11.857Z,0
2017-09-17T17:33:13.271Z,0
2017-09-17T17:35:14.691Z,0
2017-09-17T17:37:16.126Z,0
2017-09-17T17:39:17.540Z,0
2017-09-17T17:41:18.956Z,0
2017-09-17T17:43:20.397Z,0
2017-09-17T17:45:21.842Z,0
2017-09-17T17:47:23.287Z,0
2017-09-17T17:49:24.708Z,0
2017-09-17T17:51:26.167Z,0
2017-09-17T17:53:27.608Z,0
2017-09-17T17:55:29.032Z,0
2017-09-17T17:57:30.459Z,0
2017-09-17T18:00:13.064Z,0
2017-09-17T18:02:14.480Z,0
2017-09-17T18:04:15.897Z,0
2017-09-17T18:06:17.311Z,0
2017-09-17T18:08:18.729Z,0
2017-09-17T18:10:20.146Z,0
2017-09-17T18:12:21.569Z,0
2017-09-17T18:14:23.169Z,0
2017-09-17T18:16:24.601Z,0
2017-09-17T18:18:26.030Z,0
2017-09-17T18:20:27.475Z,0
2017-09-17T18:22:28.940Z,0
2017-09-17T18:24:30.379Z,0
2017-09-17T18:26:31.853Z,0
2017-09-17T18:28:33.367Z,0
2017-09-17T18:30:34.889Z,0
2017-09-17T18:32:36.428Z,0
2017-09-17T18:34:37.919Z,0
2017-09-17T18:36:39.418Z,0
2017-09-17T18:38:40.929Z,0
2017-09-17T18:40:42.466Z,0
2017-09-17T18:42:43.995Z,0
2017-09-17T18:44:45.488Z,0
2017-09-17T18:46:46.980Z,0
2017-09-17T18:48:48.420Z,0
2017-09-17T18:50:49.951Z,0
2017-09-17T18:52:51.467Z,0
2017-09-17T18:54:52.926Z,0
2017-09-17T18:56:54.454Z,0
2017-09-17T18:58:56.039Z,0
2017-09-17T19:00:57.537Z,0
2017-09-17T19:02:59.239Z,0
2017-09-17T19:05:00.680Z,0
2017-09-17T19:07:02.221Z,0
2017-09-17T19:09:03.700Z,0
2017-09-17T19:11:05.241Z,0
2017-09-17T19:13:06.712Z,0
2017-09-17T19:15:08.231Z,0
2017-09-17T19:17:09.672Z,0
2017-09-17T19:19:11.286Z,0
2017-09-17T19:21:12.829Z,0
2017-09-17T19:23:14.335Z,0
2017-09-17T19:25:15.944Z,0
2017-09-17T19:27:17.521Z,0
2017-09-17T19:29:19.072Z,0
2017-09-17T19:31:20.504Z,0
2017-09-17T19:33:22.052Z,0
2017-09-17T19:35:23.667Z,0
2017-09-17T19:37:25.165Z,0
2017-09-17T19:39:26.681Z,0
2017-09-17T19:41:28.266Z,0
2017-09-17T19:43:29.738Z,0
2017-09-17T19:45:31.272Z,0
2017-09-17T19:47:32.774Z,0
2017-09-17T19:50:16.025Z,0
2017-09-17T19:52:17.460Z,0
2017-09-17T19:54:19.053Z,0
2017-09-17T19:56:20.471Z,0
2017-09-17T19:58:21.901Z,0
2017-09-17T20:00:23.314Z,0
2017-09-17T20:02:24.752Z,0
2017-09-17T20:04:26.202Z,0
2017-09-17T20:06:27.622Z,0
2017-09-17T20:08:29.036Z,0
2017-09-17T20:10:30.461Z,0
2017-09-17T20:12:31.888Z,0
2017-09-17T20:14:33.323Z,0
2017-09-17T20:16:34.815Z,0
2017-09-17T20:18:36.227Z,0
2017-09-17T20:20:37.702Z,0
2017-09-17T20:22:39.188Z,0
2017-09-17T20:24:40.693Z,0
2017-09-17T20:26:42.190Z,0
2017-09-17T20:28:43.653Z,0
2017-09-17T20:30:45.188Z,0
2017-09-17T20:32:46.688Z,0
2017-09-17T20:34:48.165Z,0
2017-09-17T20:36:49.568Z,0
2017-09-17T20:38:51.031Z,0
2017-09-17T20:40:52.531Z,0
2017-09-17T20:42:54.136Z,0
2017-09-17T20:44:55.588Z,0
2017-09-17T20:46:57.040Z,0
2017-09-17T20:48:58.517Z,0
2017-09-17T20:51:00.057Z,0
2017-09-17T20:53:01.538Z,0
2017-09-17T20:55:03.093Z,0
2017-09-17T20:57:04.568Z,0
2017-09-17T20:59:06.054Z,0
2017-09-17T21:01:07.506Z,0
2017-09-17T21:03:08.932Z,0
2017-09-17T21:05:10.346Z,0
2017-09-17T21:07:11.769Z,0
2017-09-17T21:09:54.886Z,0
2017-09-17T21:11:56.240Z,0
2017-09-17T21:13:57.656Z,0
2017-09-17T21:15:59.243Z,0
2017-09-17T21:18:00.727Z,0
2017-09-17T21:20:02.165Z,0
2017-09-17T21:22:03.625Z,0
2017-09-17T21:24:05.145Z,0
2017-09-17T21:26:06.897Z,0
2017-09-17T21:28:08.837Z,0
2017-09-17T21:30:10.439Z,0
2017-09-17T21:32:12.018Z,0
2017-09-17T21:34:13.551Z,0
2017-09-17T21:36:14.947Z,0
2017-09-17T21:38:16.386Z,0
2017-09-17T21:40:17.777Z,0
2017-09-17T21:42:19.205Z,0
2017-09-17T21:44:20.624Z,0
2017-09-17T21:46:22.046Z,0
2017-09-17T21:48:23.476Z,0
2017-09-17T21:50:24.906Z,0
2017-09-17T21:52:26.499Z,0
2017-09-17T21:54:27.945Z,0
2017-09-17T21:57:09.432Z,0
2017-09-17T21:59:10.850Z,0
2017-09-17T22:01:12.557Z,0
2017-09-17T22:03:13.974Z,0
2017-09-17T22:05:15.518Z,0
2017-09-17T22:07:16.923Z,0
2017-09-17T22:09:18.347Z,0
2017-09-17T22:11:19.764Z,0
2017-09-17T22:13:21.181Z,0
2017-09-17T22:15:22.595Z,0
2017-09-17T22:17:24.012Z,0
2017-09-17T22:19:25.424Z,0
2017-09-17T22:21:26.845Z,0
2017-09-17T22:23:28.264Z,0
2017-09-17T22:25:29.675Z,0
2017-09-17T22:27:31.079Z,0
2017-09-17T22:29:32.535Z,0
2017-09-17T22:31:33.994Z,0
2017-09-17T22:33:35.477Z,0
2017-09-17T22:35:36.905Z,0
2017-09-17T22:37:38.324Z,0
2017-09-17T22:39:39.739Z,0
2017-09-17T22:41:41.229Z,0
2017-09-17T22:44:23.609Z,0
2017-09-17T22:46:25.020Z,0
2017-09-17T22:48:26.858Z,0
2017-09-17T22:50:28.385Z,0
2017-09-17T22:52:29.803Z,0
2017-09-17T22:54:31.224Z,0
2017-09-17T22:56:32.709Z,0
2017-09-17T22:58:34.136Z,0
2017-09-17T23:00:35.584Z,0
2017-09-17T23:02:36.993Z,0
2017-09-17T23:04:38.412Z,0
2017-09-17T23:06:39.916Z,0
2017-09-17T23:08:41.314Z,0
2017-09-17T23:10:42.744Z,0
2017-09-17T23:12:44.241Z,0
2017-09-17T23:14:45.836Z,0
2017-09-17T23:16:47.294Z,0
2017-09-17T23:18:48.778Z,0
2017-09-17T23:20:50.304Z,0
2017-09-17T23:22:51.747Z,0
2017-09-17T23:24:53.236Z,0
2017-09-17T23:26:54.757Z,0
2017-09-17T23:28:56.200Z,0
2017-09-17T23:30:57.685Z,0
2017-09-17T23:32:59.376Z,0
2017-09-17T23:35:00.891Z,0
2017-09-17T23:37:02.393Z,0
2017-09-17T23:39:03.850Z,0
2017-09-17T23:41:05.308Z,0
2017-09-17T23:43:06.720Z,0
2017-09-17T23:45:08.169Z,0
2017-09-17T23:47:50.564Z,0
2017-09-17T23:49:52.457Z,0
2017-09-17T23:51:53.866Z,0
2017-09-17T23:53:55.287Z,0
2017-09-17T23:55:56.745Z,0
2017-09-17T23:57:58.167Z,0
2017-09-17T23:59:59.578Z,0
